地図

経路データ

SID SEASON NUMBER BASIN SUBBASIN NAME ISO_TIME NATURE LAT LON WMO_WIND WMO_PRES WMO_AGENCY TRACK_TYPE DIST2LAND LANDFALL IFLAG USA_AGENCY USA_ATCF_ID USA_LAT USA_LON USA_RECORD USA_STATUS USA_WIND USA_PRES USA_SSHS USA_R34_NE USA_R34_SE USA_R34_SW USA_R34_NW USA_R50_NE USA_R50_SE USA_R50_SW USA_R50_NW USA_R64_NE USA_R64_SE USA_R64_SW USA_R64_NW USA_POCI USA_ROCI USA_RMW USA_EYE TOKYO_LAT TOKYO_LON TOKYO_GRADE TOKYO_WIND TOKYO_PRES TOKYO_R50_DIR TOKYO_R50_LONG TOKYO_R50_SHORT TOKYO_R30_DIR TOKYO_R30_LONG TOKYO_R30_SHORT TOKYO_LAND CMA_LAT CMA_LON CMA_CAT CMA_WIND CMA_PRES HKO_LAT HKO_LON HKO_CAT HKO_WIND HKO_PRES NEWDELHI_LAT NEWDELHI_LON NEWDELHI_GRADE NEWDELHI_WIND NEWDELHI_PRES NEWDELHI_CI NEWDELHI_DP NEWDELHI_POCI REUNION_LAT REUNION_LON REUNION_TYPE REUNION_WIND REUNION_PRES REUNION_TNUM REUNION_CI REUNION_RMW REUNION_R34_NE REUNION_R34_SE REUNION_R34_SW REUNION_R34_NW REUNION_R50_NE REUNION_R50_SE REUNION_R50_SW REUNION_R50_NW REUNION_R64_NE REUNION_R64_SE REUNION_R64_SW REUNION_R64_NW BOM_LAT BOM_LON BOM_TYPE BOM_WIND BOM_PRES BOM_TNUM BOM_CI BOM_RMW BOM_R34_NE BOM_R34_SE BOM_R34_SW BOM_R34_NW BOM_R50_NE BOM_R50_SE BOM_R50_SW BOM_R50_NW BOM_R64_NE BOM_R64_SE BOM_R64_SW BOM_R64_NW BOM_ROCI BOM_POCI BOM_EYE BOM_POS_METHOD BOM_PRES_METHOD NADI_LAT NADI_LON NADI_CAT NADI_WIND NADI_PRES WELLINGTON_LAT WELLINGTON_LON WELLINGTON_WIND WELLINGTON_PRES DS824_LAT DS824_LON DS824_STAGE DS824_WIND DS824_PRES TD9636_LAT TD9636_LON TD9636_STAGE TD9636_WIND TD9636_PRES TD9635_LAT TD9635_LON TD9635_WIND TD9635_PRES TD9635_ROCI NEUMANN_LAT NEUMANN_LON NEUMANN_CLASS NEUMANN_WIND NEUMANN_PRES MLC_LAT MLC_LON MLC_CLASS MLC_WIND MLC_PRES USA_GUST BOM_GUST BOM_GUST_PER REUNION_GUST REUNION_GUST_PER USA_SEAHGT USA_SEARAD_NE USA_SEARAD_SE USA_SEARAD_SW USA_SEARAD_NW STORM_SPEED STORM_DIR
1944344S04070 1945 84 SI MM NOT_NAMED 1944-12-09 00:00:00 TS -4.20000 69.8000 main 1610 1610 _________O____ -1 -4.20000 69.8000 TC 25 8 202
1944344S04070 1945 84 SI MM NOT_NAMED 1944-12-09 03:00:00 TS -4.56501 69.6500 main 1654 1654 _________P____ -1 -4.56501 69.6500 TC 25 8 203
1944344S04070 1945 84 SI MM NOT_NAMED 1944-12-09 06:00:00 TS -4.90000 69.5000 main 1694 1694 _________O____ -1 -4.90000 69.5000 TC 25 7 206
1944344S04070 1945 84 SI MM NOT_NAMED 1944-12-09 09:00:00 TS -5.19250 69.3500 main 1734 1734 _________P____ -1 -5.19250 69.3500 TC 25 7 206
1944344S04070 1945 84 SI MM NOT_NAMED 1944-12-09 12:00:00 TS -5.50000 69.2000 main 1769 1769 _________O____ -1 -5.50000 69.2000 TC 25 8 203
1944344S04070 1945 84 SI MM NOT_NAMED 1944-12-09 15:00:00 TS -5.89249 69.0575 main 1813 1813 _________P____ -1 -5.89249 69.0575 TC 25 9 200
1944344S04070 1945 84 SI MM NOT_NAMED 1944-12-09 18:00:00 TS -6.30000 68.9000 main 1863 1863 _________O____ -1 -6.30000 68.9000 TC 25 8 204
1944344S04070 1945 84 SI MM NOT_NAMED 1944-12-09 21:00:00 TS -6.64999 68.7150 main 1903 1873 _________P____ -1 -6.64999 68.7150 TC 25 8 210
1944344S04070 1945 84 SI MM NOT_NAMED 1944-12-10 00:00:00 TS -7.00000 68.5000 main 1873 1824 _________O____ -1 -7.00000 68.5000 TC 25 9 211
1944344S04070 1945 84 SI MM NOT_NAMED 1944-12-10 03:00:00 TS -7.39998 68.2650 main 1824 1768 _________P____ -1 -7.39998 68.2650 TC 25 9 212
1944344S04070 1945 84 SI MM NOT_NAMED 1944-12-10 06:00:00 TS -7.80000 68.0000 main 1768 1712 _________O____ -1 -7.80000 68.0000 TC 25 10 216
1944344S04070 1945 84 SI MM NOT_NAMED 1944-12-10 09:00:00 TS -8.17251 67.7000 main 1712 1665 _________P____ -1 -8.17251 67.7000 TC 25 9 220
1944344S04070 1945 84 SI MM NOT_NAMED 1944-12-10 12:00:00 TS -8.50000 67.4000 main 1665 1634 _________O____ -1 -8.50000 67.4000 TC 25 8 223
1944344S04070 1945 84 SI MM NOT_NAMED 1944-12-10 15:00:00 TS -8.75747 67.1424 main 1619 1587 _________P____ -1 -8.75747 67.1424 TC 25 7 225
1944344S04070 1945 84 SI MM NOT_NAMED 1944-12-10 18:00:00 TS -9.00000 66.9000 main 1587 1547 _________O____ -1 -9.00000 66.9000 TC 25 7 223
1944344S04070 1945 84 SI MM NOT_NAMED 1944-12-10 21:00:00 TS -9.29250 66.6425 main 1541 1501 _________P____ -1 -9.29250 66.6425 TC 25 8 219
1944344S04070 1945 84 SI MM NOT_NAMED 1944-12-11 00:00:00 TS -9.60000 66.4000 main 1501 1461 _________O____ -1 -9.60000 66.4000 TC 25 8 216
1944344S04070 1945 84 SI MM NOT_NAMED 1944-12-11 03:00:00 TS -9.90747 66.1925 main 1461 1421 _________P____ -1 -9.90747 66.1925 TC 25 7 213
1944344S04070 1945 84 SI MM NOT_NAMED 1944-12-11 06:00:00 TS -10.2000 66.0000 main 1421 1390 _________O____ -1 -10.2000 66.0000 TC 25 7 215
1944344S04070 1945 84 SI MM NOT_NAMED 1944-12-11 09:00:00 TS -10.4425 65.8074 main 1390 1350 _________P____ -1 -10.4425 65.8074 TC 25 6 218
1944344S04070 1945 84 SI MM NOT_NAMED 1944-12-11 12:00:00 TS -10.7000 65.6000 main 1350 1310 _________O____ -1 -10.7000 65.6000 TC 25 7 216
1944344S04070 1945 84 SI MM NOT_NAMED 1944-12-11 15:00:00 TS -11.0425 65.3650 main 1310 1254 _________P____ -1 -11.0425 65.3650 TC 25 9 215
1944344S04070 1945 84 SI MM NOT_NAMED 1944-12-11 18:00:00 TS -11.4000 65.1000 main 1254 1208 _________O____ -1 -11.4000 65.1000 TC 25 9 219
1944344S04070 1945 84 SI MM NOT_NAMED 1944-12-11 21:00:00 TS -11.7151 64.8076 main 1208 1161 _________P____ -1 -11.7151 64.8076 TC 25 8 224
1944344S04070 1945 84 SI MM NOT_NAMED 1944-12-12 00:00:00 TS -12.0000 64.5000 main 1161 _________O____ -1 -12.0000 64.5000 TC 25 8 227

IBTrACS Databaseについて

本データベースは、米国NOAAが公開する1842年以降の世界の熱帯低気圧のベストトラックデータアーカイブInternational Best Track Archive for Climate Stewardship (IBTrACS)を、ウェブで閲覧しやすい形式に変換したものです。

最終更新日:2021-10-19